Time;durP1;ratioP1;P1;durP2;ratioP2;P2;SDS_P1;SDS_P2;PMS_P1;PMS_P2;Temp;Humidity;BMP_temperature;BMP_pressure;BME280_temperature;BME280_humidity;BME280_pressure;Samples;Min_cycle;Max_cycle;Signal;HPM_P1;HPM_P2
2023/10/11 00:01:28;;;;;;;9.18;4.68;;;12.80;99.90;;;;;;5149019;28;20095;-62
2023/10/11 00:04:03;;;;;;;9.02;4.25;;;12.90;99.90;;;;;;5123261;28;20061;-64
2023/10/11 00:06:39;;;;;;;8.65;4.15;;;12.90;99.90;;;;;;5127970;28;20395;-63
2023/10/11 00:09:16;;;;;;;7.60;4.20;;;12.90;99.90;;;;;;5128086;28;20187;-62
2023/10/11 00:11:50;;;;;;;8.73;4.15;;;12.80;99.90;;;;;;5104619;28;20394;-62
2023/10/11 00:14:24;;;;;;;9.13;4.90;;;12.70;99.90;;;;;;5127075;28;20050;-62
2023/10/11 00:16:57;;;;;;;9.40;5.05;;;12.80;99.90;;;;;;5108313;28;20049;-63
2023/10/11 00:19:33;;;;;;;10.25;4.72;;;12.60;99.90;;;;;;5144256;28;20239;-62
2023/10/11 00:22:07;;;;;;;7.53;4.65;;;12.60;99.90;;;;;;5114674;28;20058;-62
2023/10/11 00:24:41;;;;;;;5.93;4.18;;;12.50;99.90;;;;;;5123179;28;20046;-62
2023/10/11 00:27:16;;;;;;;7.38;4.13;;;12.50;99.90;;;;;;5129368;28;20038;-63
2023/10/11 00:29:48;;;;;;;7.55;3.65;;;12.50;99.90;;;;;;5125912;28;20058;-62
2023/10/11 00:32:22;;;;;;;10.85;4.25;;;12.50;99.90;;;;;;5095320;28;20054;-63
2023/10/11 00:34:57;;;;;;;6.57;4.22;;;12.40;99.90;;;;;;5129787;28;20259;-62
2023/10/11 00:37:38;;;;;;;6.50;4.28;;;12.30;99.90;;;;;;5130552;28;20046;-63
2023/10/11 00:40:14;;;;;;;6.65;3.97;;;12.30;99.90;;;;;;5123449;28;20055;-62
2023/10/11 00:42:52;;;;;;;9.48;4.38;;;12.30;99.90;;;;;;5112626;28;20213;-62
2023/10/11 00:45:30;;;;;;;7.15;4.70;;;12.30;99.90;;;;;;5126819;28;20029;-62
2023/10/11 00:48:11;;;;;;;10.82;5.05;;;12.30;99.90;;;;;;5110832;28;20175;-63
2023/10/11 00:50:44;;;;;;;11.02;4.55;;;12.30;99.90;;;;;;5123893;28;20039;-62
2023/10/11 00:53:18;;;;;;;9.75;4.57;;;12.40;99.90;;;;;;5141633;28;20047;-63
2023/10/11 00:55:52;;;;;;;;;;;12.30;99.90;;;;;;5124421;28;20169;-63
2023/10/11 00:58:23;;;;;;;6.05;4.32;;;12.40;99.90;;;;;;5136471;28;20326;-63
2023/10/11 01:00:55;;;;;;;8.57;4.32;;;12.30;99.90;;;;;;5185742;22;20050;-67
2023/10/11 01:03:32;;;;;;;11.38;4.60;;;12.20;99.90;;;;;;5192664;28;20056;-68
2023/10/11 01:06:05;;;;;;;8.90;4.15;;;12.10;99.90;;;;;;5172264;28;20046;-65
2023/10/11 01:08:38;;;;;;;6.82;4.07;;;12.10;99.90;;;;;;5159987;28;20041;-66
2023/10/11 01:11:16;;;;;;;8.97;4.97;;;12.10;99.90;;;;;;5179302;28;20041;-67
2023/10/11 01:13:53;;;;;;;8.57;4.07;;;12.00;99.90;;;;;;5180605;28;20296;-66
2023/10/11 01:16:31;;;;;;;9.43;4.45;;;12.00;99.90;;;;;;5162729;28;20037;-66
2023/10/11 01:19:10;;;;;;;9.38;4.80;;;12.00;99.90;;;;;;5193610;28;20041;-68
2023/10/11 01:21:46;;;;;;;11.32;4.65;;;11.90;99.90;;;;;;5190891;28;20044;-67
2023/10/11 01:24:18;;;;;;;11.70;5.55;;;12.00;99.90;;;;;;5164128;28;20212;-63
2023/10/11 01:26:56;;;;;;;7.28;4.20;;;11.90;99.90;;;;;;5196871;28;20021;-67
2023/10/11 01:29:29;;;;;;;7.72;4.57;;;11.90;99.90;;;;;;5188454;28;20352;-66
2023/10/11 01:32:00;;;;;;;6.97;4.50;;;11.80;99.90;;;;;;5200213;28;20117;-67
2023/10/11 01:34:35;;;;;;;12.00;4.55;;;11.80;99.90;;;;;;5175618;28;20037;-65
2023/10/11 01:37:08;;;;;;;5.88;4.28;;;11.80;99.90;;;;;;5143156;28;20029;-66
2023/10/11 01:39:42;;;;;;;12.32;4.75;;;11.70;99.90;;;;;;5182483;28;20229;-68
2023/10/11 01:42:17;;;;;;;6.70;4.78;;;11.70;99.90;;;;;;5179125;28;20049;-65
2023/10/11 01:44:49;;;;;;;8.43;5.10;;;11.70;99.90;;;;;;5195407;28;20055;-68
2023/10/11 01:47:21;;;;;;;6.82;4.40;;;11.80;99.90;;;;;;5195399;28;20032;-68
2023/10/11 01:49:56;;;;;;;8.40;4.50;;;11.80;99.90;;;;;;5209193;28;20033;-64
2023/10/11 01:52:34;;;;;;;7.90;4.40;;;11.70;99.90;;;;;;5157950;28;20057;-67
2023/10/11 01:55:11;;;;;;;9.10;5.10;;;11.70;99.90;;;;;;5160631;28;20037;-67
2023/10/11 01:57:48;;;;;;;7.13;4.18;;;11.60;99.90;;;;;;5163560;28;20045;-66
2023/10/11 02:00:29;;;;;;;13.50;4.63;;;11.60;99.90;;;;;;5171441;28;20051;-69
2023/10/11 02:03:02;;;;;;;11.05;5.60;;;11.60;99.90;;;;;;5193132;28;20037;-65
2023/10/11 02:05:33;;;;;;;6.38;4.55;;;11.50;99.90;;;;;;5159501;28;20065;-66
2023/10/11 02:08:16;;;;;;;8.32;5.15;;;11.40;99.90;;;;;;5176092;28;20191;-67
2023/10/11 02:10:55;;;;;;;7.60;5.25;;;11.50;99.90;;;;;;5160380;28;20071;-68
2023/10/11 02:13:27;;;;;;;9.60;4.70;;;11.60;99.90;;;;;;5193836;28;20040;-64
2023/10/11 02:16:09;;;;;;;9.23;4.47;;;11.60;99.90;;;;;;5191490;28;20042;-65
2023/10/11 02:18:41;;;;;;;10.82;5.03;;;11.50;99.90;;;;;;5162016;28;20052;-66
2023/10/11 02:21:21;;;;;;;7.72;4.80;;;11.50;99.90;;;;;;5175786;28;20026;-69
2023/10/11 02:23:56;;;;;;;7.70;4.75;;;11.40;99.90;;;;;;5191896;28;20052;-65
2023/10/11 02:26:32;;;;;;;9.32;4.32;;;11.50;99.90;;;;;;5191585;28;20034;-64
2023/10/11 02:29:20;;;;;;;7.75;4.32;;;11.40;99.90;;;;;;5158951;28;20059;-64
2023/10/11 02:32:01;;;;;;;10.45;5.00;;;11.40;99.90;;;;;;5193048;28;20030;-66
2023/10/11 02:34:35;;;;;;;9.88;4.18;;;11.40;99.90;;;;;;5176262;28;20038;-65
2023/10/11 02:37:21;;;;;;;7.78;4.07;;;11.40;99.90;;;;;;5190248;28;20083;-68
2023/10/11 02:39:54;;;;;;;7.57;4.50;;;11.40;99.90;;;;;;5176515;28;20037;-65
2023/10/11 02:42:28;;;;;;;11.32;4.38;;;11.40;99.90;;;;;;5175821;28;20117;-66
2023/10/11 02:45:05;;;;;;;7.47;4.15;;;11.40;99.90;;;;;;5193072;28;20274;-65
2023/10/11 02:47:45;;;;;;;9.05;4.05;;;11.40;99.90;;;;;;5175455;28;20145;-66
2023/10/11 02:50:22;;;;;;;11.27;3.90;;;11.40;99.90;;;;;;5192878;28;20033;-67
2023/10/11 02:53:21;;;;;;;13.85;4.18;;;11.50;99.90;;;;;;5191428;28;20034;-64
2023/10/11 02:55:57;;;;;;;10.77;4.38;;;11.60;99.90;;;;;;5191740;28;20030;-65
2023/10/11 02:58:32;;;;;;;5.40;4.05;;;11.60;99.90;;;;;;5191047;28;20363;-67
2023/10/11 03:01:40;;;;;;;8.77;4.35;;;11.60;99.90;;;;;;5137626;28;20526;-66
2023/10/11 03:04:07;;;;;;;11.20;4.28;;;11.60;99.90;;;;;;5177459;28;20045;-67
2023/10/11 03:06:38;;;;;;;6.75;4.13;;;11.60;99.90;;;;;;5190354;28;20441;-66
2023/10/11 03:09:11;;;;;;;9.30;5.53;;;11.70;99.90;;;;;;5190473;28;20087;-67
2023/10/11 03:11:45;;;;;;;12.48;4.78;;;11.70;99.90;;;;;;5168345;28;20531;-64
2023/10/11 03:14:20;;;;;;;12.00;5.10;;;11.70;99.90;;;;;;5190150;28;20042;-63
2023/10/11 03:16:58;;;;;;;7.65;4.53;;;11.80;99.90;;;;;;5173132;28;20036;-66
2023/10/11 03:19:34;;;;;;;11.57;4.85;;;11.80;99.90;;;;;;5156899;28;20080;-64
2023/10/11 03:22:06;;;;;;;8.27;4.93;;;11.90;99.90;;;;;;5166136;28;20033;-66
2023/10/11 03:24:40;;;;;;;8.88;5.03;;;11.90;99.90;;;;;;5149842;28;20045;-63
2023/10/11 03:27:13;;;;;;;6.28;4.63;;;12.00;99.90;;;;;;5191395;28;20036;-66
2023/10/11 03:29:48;;;;;;;10.20;4.35;;;12.00;99.90;;;;;;5172871;28;20033;-65
2023/10/11 03:32:25;;;;;;;6.90;3.80;;;11.90;99.90;;;;;;5154600;28;20040;-66
2023/10/11 03:34:56;;;;;;;11.98;4.55;;;11.90;99.90;;;;;;5173863;28;20033;-64
2023/10/11 03:37:28;;;;;;;8.57;4.93;;;11.90;99.90;;;;;;5156486;28;20514;-64
2023/10/11 03:40:00;;;;;;;7.30;4.05;;;11.80;99.90;;;;;;5170080;28;20045;-65
2023/10/11 03:45:27;;;;;;;6.78;3.90;;;11.60;99.90;;;;;;5190912;28;20066;-65
2023/10/11 03:47:59;;;;;;;6.80;4.15;;;11.60;99.90;;;;;;5157894;28;20041;-67
2023/10/11 03:50:34;;;;;;;6.93;4.45;;;11.60;99.90;;;;;;5155080;28;20462;-65
2023/10/11 03:53:11;;;;;;;4.75;3.42;;;11.60;99.90;;;;;;5190038;28;20104;-64
2023/10/11 03:55:48;;;;;;;8.00;3.88;;;11.60;99.90;;;;;;5157099;28;20065;-67
2023/10/11 03:58:37;;;;;;;6.40;4.13;;;11.60;99.90;;;;;;5173656;28;20240;-65
2023/10/11 04:01:23;;;;;;;6.55;4.18;;;11.50;99.90;;;;;;5169876;28;20065;-65
2023/10/11 04:03:57;;;;;;;9.32;4.10;;;11.50;99.90;;;;;;5191426;28;20052;-66
2023/10/11 04:06:34;;;;;;;5.80;3.83;;;11.50;99.90;;;;;;5140629;28;20067;-65
2023/10/11 04:09:32;;;;;;;8.88;4.50;;;11.50;99.90;;;;;;5174233;28;20055;-68
2023/10/11 04:12:12;;;;;;;9.43;5.07;;;11.50;99.90;;;;;;5185565;28;20026;-66
2023/10/11 04:14:47;;;;;;;7.22;4.63;;;11.50;99.90;;;;;;5191421;28;20037;-65
2023/10/11 04:23:24;;;;;;;10.73;4.68;;;11.40;99.90;;;;;;5169897;28;20041;-65
2023/10/11 04:25:47;;;;;;;8.40;4.10;;;11.40;99.90;;;;;;5181099;28;20255;-67
2023/10/11 04:28:23;;;;;;;7.80;3.63;;;11.30;99.90;;;;;;5145101;28;20073;-63
2023/10/11 04:31:28;;;;;;;5.45;3.63;;;11.40;99.90;;;;;;5177703;28;20051;-67
2023/10/11 04:33:51;;;;;;;6.25;3.55;;;11.40;99.90;;;;;;5184372;28;20060;-65
2023/10/11 04:36:25;;;;;;;5.63;3.30;;;11.20;99.90;;;;;;5140681;28;20045;-64
2023/10/11 04:39:14;;;;;;;4.93;3.40;;;11.10;99.90;;;;;;5171876;28;20037;-65
2023/10/11 04:41:52;;;;;;;10.13;3.65;;;11.10;99.90;;;;;;5156781;28;20090;-66
2023/10/11 04:44:30;;;;;;;10.15;4.18;;;11.10;99.90;;;;;;5172497;28;20456;-64
2023/10/11 04:47:02;;;;;;;9.15;3.90;;;11.10;99.90;;;;;;5145321;28;20109;-68
2023/10/11 04:49:43;;;;;;;13.75;4.75;;;11.10;99.90;;;;;;5165324;28;20131;-63
2023/10/11 04:52:22;;;;;;;10.85;4.03;;;11.10;99.90;;;;;;5166641;28;20047;-64
2023/10/11 04:54:57;;;;;;;10.15;4.38;;;11.20;99.90;;;;;;5161455;28;20037;-66
2023/10/11 04:58:04;;;;;;;8.15;4.15;;;11.10;99.90;;;;;;5151628;28;20045;-66
2023/10/11 05:00:47;;;;;;;6.18;4.10;;;11.00;99.90;;;;;;5184800;28;20037;-66
2023/10/11 05:03:23;;;;;;;6.30;4.05;;;11.00;99.90;;;;;;5149890;28;20293;-62
2023/10/11 05:06:02;;;;;;;12.57;5.43;;;10.80;99.90;;;;;;5189807;28;20043;-63
2023/10/11 05:12:19;;;;;;;10.90;4.65;;;10.90;99.90;;;;;;5180442;28;20517;-65
2023/10/11 05:14:56;;;;;;;11.00;5.32;;;10.80;99.90;;;;;;5156655;28;20067;-65
2023/10/11 05:22:52;;;;;;;7.03;3.85;;;10.90;99.90;;;;;;5169681;28;20045;-63
2023/10/11 05:25:56;;;;;;;10.70;4.30;;;10.90;99.90;;;;;;5169115;28;20042;-61
2023/10/11 05:28:44;;;;;;;7.47;4.05;;;11.00;99.90;;;;;;5166423;28;20060;-62
2023/10/11 05:50:50;;;;;;;7.18;3.72;;;11.00;99.90;;;;;;5161185;28;20241;-66
2023/10/11 05:51:19;;;;;;;9.98;4.28;;;11.10;99.90;;;;;;5175005;28;20240;-65
2023/10/11 05:53:53;;;;;;;11.38;4.18;;;11.10;99.90;;;;;;5156789;28;20045;-64
2023/10/11 05:56:33;;;;;;;9.55;5.75;;;11.20;99.90;;;;;;5178650;28;20037;-65
2023/10/11 05:59:13;;;;;;;7.03;4.60;;;11.40;99.90;;;;;;5175622;28;20072;-63
2023/10/11 06:01:48;;;;;;;7.40;5.45;;;11.40;99.90;;;;;;5176654;28;20361;-63
2023/10/11 06:04:23;;;;;;;9.70;5.18;;;11.60;99.90;;;;;;5192292;28;20060;-67
2023/10/11 06:06:57;;;;;;;11.32;5.32;;;11.80;99.90;;;;;;5178265;28;20041;-64
2023/10/11 06:09:30;;;;;;;;;;;11.90;99.90;;;;;;5177790;28;20044;-62
2023/10/11 06:12:04;;;;;;;12.05;4.80;;;11.90;99.90;;;;;;5176578;28;19928;-65
2023/10/11 06:14:36;;;;;;;8.40;5.00;;;11.80;99.90;;;;;;5170573;28;20077;-66
2023/10/11 06:17:16;;;;;;;10.00;5.15;;;11.90;99.90;;;;;;5178894;28;20041;-63
2023/10/11 06:19:54;;;;;;;8.52;4.50;;;11.80;99.90;;;;;;5178181;28;20588;-64
2023/10/11 06:22:28;;;;;;;10.82;5.32;;;11.90;99.90;;;;;;5158670;28;20064;-61
2023/10/11 06:25:07;;;;;;;7.90;4.40;;;11.90;99.90;;;;;;5171176;28;20059;-67
2023/10/11 06:30:32;;;;;;;9.15;4.97;;;12.30;99.90;;;;;;5161150;28;20412;-67
2023/10/11 06:33:07;;;;;;;10.93;4.78;;;12.40;99.90;;;;;;5189556;28;20231;-64
2023/10/11 06:35:49;;;;;;;12.48;6.38;;;12.50;99.90;;;;;;5177635;28;20025;-65
2023/10/11 06:38:29;;;;;;;10.95;6.30;;;12.60;99.90;;;;;;5160190;28;20041;-66
2023/10/11 06:43:51;;;;;;;12.85;6.90;;;13.00;99.90;;;;;;5191090;28;20034;-66
2023/10/11 06:46:23;;;;;;;10.73;5.68;;;13.30;99.90;;;;;;5142785;28;20593;-65
2023/10/11 06:48:58;;;;;;;11.18;5.57;;;13.50;99.90;;;;;;5145634;28;20052;-65
2023/10/11 06:51:32;;;;;;;9.05;5.53;;;13.60;99.90;;;;;;5143853;28;20041;-61
2023/10/11 06:54:06;;;;;;;7.65;5.20;;;13.80;99.90;;;;;;5168558;28;20042;-65
2023/10/11 06:56:38;;;;;;;14.75;6.13;;;13.80;99.90;;;;;;5139887;28;20046;-65
2023/10/11 06:59:14;;;;;;;11.68;5.63;;;14.00;99.90;;;;;;5190947;28;20406;-66
2023/10/11 07:01:46;;;;;;;9.30;5.30;;;14.10;99.90;;;;;;5171752;28;20567;-67
2023/10/11 07:04:30;;;;;;;11.20;5.38;;;14.20;99.90;;;;;;5138697;28;20049;-66
2023/10/11 07:07:07;;;;;;;5.77;4.60;;;14.50;99.90;;;;;;5173177;28;20030;-66
2023/10/11 07:09:39;;;;;;;8.50;5.40;;;14.70;99.90;;;;;;5173466;28;20271;-66
2023/10/11 07:12:39;;;;;;;11.40;4.43;;;14.90;99.90;;;;;;5190247;28;20052;-64
2023/10/11 07:15:10;;;;;;;12.57;4.75;;;15.10;99.90;;;;;;5173152;28;20051;-64
2023/10/11 07:17:44;;;;;;;7.55;4.88;;;15.20;99.90;;;;;;5193919;28;20097;-65
2023/10/11 07:20:44;;;;;;;8.07;5.55;;;15.50;99.90;;;;;;5161721;28;20040;-67
2023/10/11 07:23:07;;;;;;;11.32;5.05;;;15.70;99.90;;;;;;5193861;28;20505;-66
2023/10/11 07:25:39;;;;;;;9.65;4.75;;;16.10;99.90;;;;;;5176339;28;20044;-66
2023/10/11 07:28:35;;;;;;;6.88;5.00;;;16.40;99.90;;;;;;5193945;28;20043;-66
2023/10/11 07:31:16;;;;;;;11.77;4.57;;;16.70;99.90;;;;;;5176547;28;20044;-64
2023/10/11 07:33:50;;;;;;;7.38;4.30;;;16.80;13.50;;;;;;5137101;28;20619;-68
2023/10/11 07:36:22;;;;;;;11.38;4.68;;;16.90;7.30;;;;;;5161506;28;20338;-66
2023/10/11 07:39:00;;;;;;;8.80;5.18;;;17.00;1.00;;;;;;5172319;28;20080;-64
2023/10/11 07:41:34;;;;;;;14.30;5.35;;;17.20;1.00;;;;;;5169678;28;20029;-63
2023/10/11 07:44:08;;;;;;;5.72;3.90;;;17.30;1.00;;;;;;5158533;28;20052;-68
2023/10/11 07:46:40;;;;;;;;;;;17.70;1.00;;;;;;5140947;28;20041;-63
2023/10/11 07:49:15;;;;;;;7.45;5.22;;;17.80;1.00;;;;;;5192403;28;19909;-66
2023/10/11 07:51:52;;;;;;;5.15;4.35;;;17.70;1.00;;;;;;5175686;28;20046;-69
2023/10/11 07:54:27;;;;;;;7.25;4.35;;;17.60;1.00;;;;;;5172360;28;20041;-64
2023/10/11 07:57:01;;;;;;;9.60;4.38;;;17.70;1.00;;;;;;5141937;28;20538;-67
2023/10/11 07:59:33;;;;;;;9.88;4.47;;;18.00;1.00;;;;;;5173372;28;20029;-65
2023/10/11 08:02:08;;;;;;;6.13;4.22;;;18.10;1.00;;;;;;5151319;28;20391;-67
2023/10/11 08:04:47;;;;;;;6.32;3.42;;;18.20;1.00;;;;;;5150448;28;20041;-68
2023/10/11 08:07:19;;;;;;;12.10;4.40;;;18.50;1.00;;;;;;5125630;28;20046;-67
2023/10/11 08:09:55;;;;;;;9.23;4.32;;;18.60;99.90;;;;;;5172477;28;20065;-67
2023/10/11 08:12:28;;;;;;;5.82;4.57;;;18.40;99.90;;;;;;5154662;28;20044;-65
2023/10/11 08:15:04;;;;;;;8.75;4.15;;;18.30;1.00;;;;;;5149153;28;20038;-68
2023/10/11 08:17:37;;;;;;;5.78;4.25;;;18.50;1.00;;;;;;5183229;28;20368;-66
2023/10/11 08:20:15;;;;;;;7.07;4.00;;;18.60;99.90;;;;;;5174471;28;20584;-68
2023/10/11 08:22:47;;;;;;;6.38;3.97;;;18.90;1.00;;;;;;5154251;28;20026;-69
2023/10/11 08:25:33;;;;;;;10.23;3.88;;;19.00;1.00;;;;;;5153104;28;20056;-66
2023/10/11 08:28:19;;;;;;;5.90;3.97;;;19.30;99.90;;;;;;5146257;28;20044;-69
2023/10/11 08:30:51;;;;;;;8.45;3.45;;;19.50;99.90;;;;;;5153086;28;20379;-65
2023/10/11 08:33:31;;;;;;;4.65;3.40;;;19.80;1.00;;;;;;5153578;28;20044;-67
2023/10/11 08:36:04;;;;;;;5.38;3.55;;;20.00;99.90;;;;;;5171010;28;20046;-67
2023/10/11 08:38:36;;;;;;;7.10;3.10;;;20.20;1.00;;;;;;5155375;28;20048;-67
2023/10/11 08:41:15;;;;;;;5.78;2.95;;;20.00;99.90;;;;;;5154961;28;20044;-67
2023/10/11 08:43:54;;;;;;;5.20;3.45;;;19.90;99.90;;;;;;5153496;28;20034;-67
2023/10/11 08:46:32;;;;;;;5.30;2.92;;;19.70;99.90;;;;;;5147213;28;20033;-70
2023/10/11 08:49:07;;;;;;;3.58;3.28;;;19.90;99.90;;;;;;5144280;28;20539;-66
2023/10/11 08:51:42;;;;;;;4.72;3.42;;;19.80;40.90;;;;;;5154563;28;20120;-69
2023/10/11 08:54:16;;;;;;;5.80;3.50;;;19.80;99.90;;;;;;5138474;28;20042;-65
2023/10/11 08:56:57;;;;;;;3.67;3.20;;;19.90;99.90;;;;;;5155317;28;20040;-68
2023/10/11 08:59:32;;;;;;;4.88;3.00;;;20.10;1.00;;;;;;5138381;28;20056;-67
2023/10/11 09:02:08;;;;;;;6.68;3.55;;;19.80;99.90;;;;;;5157520;28;20041;-67
2023/10/11 09:05:28;;;;;;;4.72;3.42;;;20.20;99.90;;;;;;5171303;28;20033;-68
2023/10/11 09:08:04;;;;;;;3.42;3.10;;;20.50;1.00;;;;;;5178962;28;20034;-65
2023/10/11 09:10:39;;;;;;;5.55;3.53;;;20.70;1.00;;;;;;5175407;28;20041;-64
2023/10/11 09:13:14;;;;;;;3.85;3.42;;;20.80;1.00;;;;;;5186782;28;20044;-68
2023/10/11 09:15:54;;;;;;;9.75;3.83;;;21.00;43.70;;;;;;5169659;28;20045;-65
2023/10/11 09:18:31;;;;;;;4.25;3.28;;;20.40;1.00;;;;;;5174316;28;20030;-66
2023/10/11 09:21:20;;;;;;;7.07;3.97;;;20.60;1.00;;;;;;5159410;28;20230;-67
2023/10/11 09:24:00;;;;;;;4.43;3.33;;;20.60;1.00;;;;;;5156253;28;21373;-66
2023/10/11 09:26:35;;;;;;;4.07;3.45;;;20.90;1.00;;;;;;5137730;28;20048;-69
2023/10/11 09:29:07;;;;;;;3.95;3.20;;;21.40;1.00;;;;;;5156503;28;20045;-69
2023/10/11 09:32:04;;;;;;;4.93;4.20;;;21.40;1.00;;;;;;5193657;28;20037;-68
2023/10/11 09:34:41;;;;;;;4.72;4.28;;;21.60;1.00;;;;;;5162128;28;20033;-69
2023/10/11 09:37:15;;;;;;;7.53;4.07;;;21.70;1.00;;;;;;5177347;28;20399;-69
2023/10/11 09:39:51;;;;;;;6.60;4.03;;;21.80;1.00;;;;;;5165432;28;20048;-68
2023/10/11 09:42:29;;;;;;;5.82;3.63;;;21.90;1.00;;;;;;5177228;28;20045;-67
2023/10/11 09:45:02;;;;;;;7.20;3.50;;;22.20;19.70;;;;;;5179909;28;20345;-68
2023/10/11 09:47:41;;;;;;;5.07;3.05;;;22.20;1.00;;;;;;5142190;28;20045;-67
2023/10/11 09:50:18;;;;;;;5.22;3.60;;;22.50;1.00;;;;;;5178327;28;20025;-68
2023/10/11 09:53:00;;;;;;;4.43;3.28;;;23.00;49.90;;;;;;5187267;28;20225;-67
2023/10/11 09:55:50;;;;;;;3.75;3.22;;;23.20;99.90;;;;;;5177015;28;20233;-67
2023/10/11 09:58:41;;;;;;;4.05;3.75;;;23.80;99.90;;;;;;5192077;28;20061;-68
2023/10/11 10:01:32;;;;;;;3.90;3.47;;;22.60;99.90;;;;;;5156409;28;20075;-68
2023/10/11 10:04:10;;;;;;;4.63;3.63;;;23.60;99.90;;;;;;5190905;28;20037;-66
2023/10/11 10:07:12;;;;;;;4.68;3.58;;;24.20;99.90;;;;;;5175011;28;20045;-67
2023/10/11 10:09:59;;;;;;;5.93;3.70;;;24.60;99.90;;;;;;5142018;28;20368;-65
2023/10/11 10:12:56;;;;;;;4.95;3.40;;;25.20;99.90;;;;;;5153902;28;20591;-67
2023/10/11 10:15:33;;;;;;;4.75;3.50;;;25.70;1.00;;;;;;5164882;28;20040;-66
2023/10/11 10:18:12;;;;;;;7.38;3.28;;;26.50;99.90;;;;;;5178688;28;20021;-67
2023/10/11 10:20:46;;;;;;;5.22;3.30;;;27.10;99.90;;;;;;5179753;28;20042;-66
2023/10/11 10:23:17;;;;;;;4.82;2.92;;;27.30;99.90;;;;;;5181107;28;20045;-69
2023/10/11 10:26:11;;;;;;;4.00;3.42;;;27.50;99.90;;;;;;5160764;28;20072;-68
2023/10/11 10:28:45;;;;;;;6.32;3.85;;;27.30;99.90;;;;;;5157651;28;20061;-70
2023/10/11 10:31:24;;;;;;;4.53;3.10;;;26.50;99.90;;;;;;5155990;28;20041;-66
2023/10/11 10:34:05;;;;;;;3.80;3.28;;;26.90;99.90;;;;;;5189483;28;20045;-68
2023/10/11 10:36:43;;;;;;;5.13;3.47;;;27.60;1.00;;;;;;5167363;28;20337;-67
2023/10/11 10:42:12;;;;;;;2.92;2.60;;;28.70;1.00;;;;;;5184883;28;20025;-69
2023/10/11 10:44:51;;;;;;;5.13;3.65;;;29.50;1.00;;;;;;5186568;28;20045;-70
2023/10/11 10:47:31;;;;;;;4.47;3.47;;;28.40;1.00;;;;;;5170864;28;20045;-66
2023/10/11 10:50:06;;;;;;;6.53;3.30;;;29.20;1.00;;;;;;5176560;28;20049;-65
2023/10/11 10:52:41;;;;;;;7.40;3.65;;;29.30;1.00;;;;;;5158651;28;20045;-69
2023/10/11 10:55:16;;;;;;;4.35;3.10;;;29.60;1.00;;;;;;5167862;28;20056;-67
2023/10/11 10:57:55;;;;;;;5.60;3.10;;;29.80;1.00;;;;;;5155339;28;20041;-67
2023/10/11 11:00:33;;;;;;;5.63;3.15;;;29.00;1.00;;;;;;5171906;28;20030;-71
2023/10/11 11:03:20;;;;;;;4.10;3.42;;;28.20;1.00;;;;;;5183426;28;20044;-66
2023/10/11 11:06:03;;;;;;;5.47;3.20;;;28.30;1.00;;;;;;5177405;28;20392;-66
2023/10/11 11:08:41;;;;;;;6.93;3.83;;;29.10;1.00;;;;;;5162118;28;20030;-66
2023/10/11 11:11:31;;;;;;;5.72;3.50;;;29.90;1.00;;;;;;5162734;28;20043;-68
2023/10/11 11:14:13;;;;;;;4.72;3.00;;;29.30;1.00;;;;;;5184567;28;20038;-70
2023/10/11 11:16:57;;;;;;;7.20;3.28;;;29.80;1.00;;;;;;5173613;28;20048;-67
2023/10/11 11:19:34;;;;;;;8.80;3.05;;;29.90;1.00;;;;;;5177231;28;20032;-67
2023/10/11 11:22:15;;;;;;;3.83;3.03;;;29.40;1.00;;;;;;5193209;28;20047;-67
2023/10/11 11:24:52;;;;;;;5.38;3.00;;;30.20;1.00;;;;;;5168620;28;20037;-67
2023/10/11 11:27:26;;;;;;;5.32;2.97;;;30.10;1.00;;;;;;5170497;28;20037;-66
2023/10/11 11:30:15;;;;;;;7.00;2.78;;;30.90;1.00;;;;;;5193781;28;20033;-71
2023/10/11 11:32:48;;;;;;;4.80;3.10;;;31.30;1.00;;;;;;5174080;28;20362;-68
2023/10/11 11:35:29;;;;;;;4.22;2.63;;;30.20;1.00;;;;;;5187914;28;20048;-69
2023/10/11 11:38:05;;;;;;;5.90;2.95;;;29.80;1.00;;;;;;5177539;28;20029;-66
2023/10/11 11:40:47;;;;;;;6.82;3.30;;;30.20;1.00;;;;;;5150622;28;20048;-68
2023/10/11 11:43:31;;;;;;;5.22;3.05;;;30.20;1.00;;;;;;5188924;28;20029;-64
2023/10/11 11:46:03;;;;;;;3.30;3.00;;;31.00;1.00;;;;;;5188845;28;20707;-67
2023/10/11 11:48:44;;;;;;;8.30;2.95;;;32.20;1.00;;;;;;5189456;28;20036;-67
2023/10/11 11:51:21;;;;;;;4.32;2.65;;;33.30;1.00;;;;;;5176049;28;20341;-68
2023/10/11 11:53:54;;;;;;;4.63;2.92;;;33.60;1.00;;;;;;5168253;28;20394;-69
2023/10/11 11:56:26;;;;;;;6.20;3.65;;;33.30;1.00;;;;;;5172281;28;20053;-68
2023/10/11 11:59:00;;;;;;;5.63;3.17;;;32.40;1.00;;;;;;5135075;28;20544;-69
2023/10/11 12:01:32;;;;;;;;;;;32.00;1.00;;;;;;5139306;28;20471;-67
2023/10/11 12:04:09;;;;;;;6.63;3.15;;;32.30;1.00;;;;;;5189292;28;19921;-70
2023/10/11 12:06:41;;;;;;;4.43;2.70;;;32.40;1.00;;;;;;5174840;28;20043;-66
2023/10/11 12:09:17;;;;;;;9.23;3.72;;;33.10;1.00;;;;;;5140989;28;20330;-68
2023/10/11 12:11:53;;;;;;;4.25;2.85;;;33.30;1.00;;;;;;5160000;28;20037;-65
2023/10/11 12:14:27;;;;;;;8.15;3.33;;;32.80;1.00;;;;;;5157860;28;20045;-68
2023/10/11 12:17:09;;;;;;;;;;;32.80;1.00;;;;;;5190579;28;20061;-67
2023/10/11 12:19:53;;;;;;;3.28;2.63;;;32.40;1.00;;;;;;5160028;28;19923;-67
2023/10/11 12:22:27;;;;;;;5.35;2.70;;;32.80;1.00;;;;;;5174437;28;20045;-68
2023/10/11 12:25:07;;;;;;;;;;;33.00;1.00;;;;;;5186690;28;20043;-69
2023/10/11 12:27:45;;;;;;;9.73;3.20;;;33.40;1.00;;;;;;5170959;28;20368;-67
2023/10/11 12:30:22;;;;;;;4.63;3.50;;;32.60;1.00;;;;;;5168514;28;20033;-69
2023/10/11 12:32:54;;;;;;;4.22;2.72;;;30.30;1.00;;;;;;5181358;28;20033;-68
2023/10/11 12:35:29;;;;;;;4.63;2.60;;;30.80;1.00;;;;;;5175035;28;20043;-67
2023/10/11 12:38:00;;;;;;;6.10;2.78;;;31.50;1.00;;;;;;5192787;28;20169;-67
2023/10/11 12:40:34;;;;;;;3.97;2.88;;;32.30;1.00;;;;;;5175877;28;20067;-69
2023/10/11 12:43:10;;;;;;;5.18;2.92;;;33.20;1.00;;;;;;5139146;28;20041;-68
2023/10/11 12:45:48;;;;;;;4.78;3.22;;;32.40;1.00;;;;;;5188403;28;20034;-70
2023/10/11 12:48:19;;;;;;;5.50;3.50;;;31.20;1.00;;;;;;5158563;28;20318;-67
2023/10/11 12:50:51;;;;;;;4.68;2.92;;;31.70;1.00;;;;;;5175019;28;20271;-68
2023/10/11 12:53:22;;;;;;;5.40;3.75;;;31.50;1.00;;;;;;5190064;28;20041;-68
2023/10/11 12:55:56;;;;;;;7.00;3.05;;;30.40;1.00;;;;;;5192102;28;20033;-66
2023/10/11 12:58:39;;;;;;;3.95;2.95;;;30.30;1.00;;;;;;5141768;28;20278;-66
2023/10/11 13:01:14;;;;;;;5.95;3.10;;;30.70;1.00;;;;;;5185876;28;20462;-67
2023/10/11 13:03:52;;;;;;;3.65;3.05;;;31.40;1.00;;;;;;5150132;28;20060;-69
2023/10/11 13:06:26;;;;;;;5.72;2.60;;;31.60;1.00;;;;;;5150381;28;20048;-65
2023/10/11 13:08:59;;;;;;;6.28;3.38;;;32.10;1.00;;;;;;5143464;28;20045;-68
2023/10/11 13:11:33;;;;;;;10.38;3.63;;;31.10;1.00;;;;;;5180844;28;20042;-67
2023/10/11 13:14:05;;;;;;;;;;;30.00;1.00;;;;;;5169586;28;20034;-69
2023/10/11 13:16:40;;;;;;;4.82;2.88;;;30.90;1.00;;;;;;5156360;28;19917;-68
2023/10/11 13:19:18;;;;;;;5.75;3.03;;;32.00;1.00;;;;;;5170696;28;20554;-66
2023/10/11 13:21:56;;;;;;;4.00;2.88;;;32.20;1.00;;;;;;5156122;28;20029;-68
2023/10/11 13:24:34;;;;;;;5.55;2.80;;;32.20;1.00;;;;;;5159036;28;20046;-68
2023/10/11 13:27:09;;;;;;;4.47;2.88;;;32.60;1.00;;;;;;5153650;28;20041;-64
2023/10/11 13:29:47;;;;;;;5.28;3.08;;;32.60;1.00;;;;;;5138614;28;20060;-69
2023/10/11 13:32:19;;;;;;;7.57;3.33;;;31.70;1.00;;;;;;5136083;28;20049;-68
2023/10/11 13:34:52;;;;;;;5.10;2.97;;;31.60;1.00;;;;;;5117245;28;20048;-65
2023/10/11 13:37:27;;;;;;;6.57;2.92;;;31.40;1.00;;;;;;5151594;28;20527;-69
2023/10/11 13:40:05;;;;;;;7.88;2.53;;;30.60;1.00;;;;;;5152905;28;20052;-69
2023/10/11 13:42:42;;;;;;;4.38;2.70;;;30.20;1.00;;;;;;5152712;28;20026;-70
2023/10/11 13:45:16;;;;;;;6.70;2.88;;;29.60;1.00;;;;;;5167944;28;20036;-70
2023/10/11 13:47:53;;;;;;;4.93;2.92;;;28.40;1.00;;;;;;5138344;28;20050;-66
2023/10/11 13:50:35;;;;;;;6.25;2.92;;;27.80;1.00;;;;;;5158622;28;20345;-67
2023/10/11 13:53:13;;;;;;;4.15;2.92;;;27.50;1.00;;;;;;5129590;28;20061;-63
2023/10/11 13:55:46;;;;;;;8.85;3.05;;;27.50;1.00;;;;;;5169900;28;20344;-70
2023/10/11 13:58:21;;;;;;;9.93;3.35;;;27.10;1.00;;;;;;5180470;28;20034;-66
2023/10/11 14:08:50;;;;;;;5.63;3.05;;;26.40;1.00;;;;;;5158647;28;20220;-68
2023/10/11 14:11:23;;;;;;;6.13;3.15;;;25.80;1.00;;;;;;5177761;28;20038;-68
2023/10/11 14:14:00;;;;;;;6.68;3.17;;;25.50;1.00;;;;;;5190340;28;20025;-66
2023/10/11 14:16:31;;;;;;;6.15;2.88;;;25.50;1.00;;;;;;5159401;28;20356;-69
2023/10/11 14:19:08;;;;;;;6.00;3.20;;;25.90;1.00;;;;;;5195791;28;20033;-71
2023/10/11 14:21:51;;;;;;;8.05;2.92;;;26.10;1.00;;;;;;5153264;28;20056;-66
2023/10/11 14:24:26;;;;;;;7.57;3.40;;;27.10;1.00;;;;;;5173595;28;20041;-67
2023/10/11 14:26:57;;;;;;;;;;;28.30;1.00;;;;;;5179775;28;20036;-68
2023/10/11 14:29:31;;;;;;;5.32;2.70;;;29.40;1.00;;;;;;5156786;28;19917;-68
2023/10/11 14:32:02;;;;;;;6.20;3.55;;;29.80;1.00;;;;;;5169609;28;20045;-70
2023/10/11 14:34:34;;;;;;;6.18;2.70;;;29.70;1.00;;;;;;5161174;28;20059;-68